Etusivu
METAR-TAF:

METAR-TAF

Lentoasemat :

Katowicen kansainvälinen lentoasema

Katowice, Puola

Leveyspiiri: 50-28-27N, Pituuspiiri: 019-04-48E, korkeus merenpinnasta: 284 m

Tämänhetkinen sää

Tämä raportti tehtiin 29 minuuttia sitten, kello 16.30 UTC
Tuuli 12 kn lännestä/lounaasta
Lämpötila -2°C
Kosteus 80%
Ilmanpaine 1021 hPa
Näkyvyys 10 km tai enemmän
ei pilviä alle 1500 m:ssä eikä cumulonimbus-pilviä

METAR: EPKT 051630Z 24012KT CAVOK M02/M05 Q1021

Aika: 17:59 (16:59 UTC)

Sääennuste

Tämä raportti tehtiin 5 tuntia ja 29 minuuttia sitten, kello 11.30 UTC
Ennuste voimassa 05. päivästä klo 12 UTC - 06. päivään klo 12 UTC
Tuuli 10 kn etelästä/lounaasta
Näkyvyys 10 km tai enemmän
ei pilviä alle 1500 m:ssä eikä cumulonimbus-pilviä
Ajoittain
05. päivästä klo 12 UTC - 06. päivään klo 12 UTC
Tuuli 15 kn lounaasta puuskistuen 25 kn:hen

TAF: EPKT 051130Z 0512/0612 21010KT CAVOK TEMPO 0512/0612 22015G25KT

Säähavainnot ja -ennusteet yli 4000 lentoasemalta (METAR- ja TAF-raportit).

Käytössä olevat sääasemat on merkitty karttaan keltaisilla ja punaisilla pisteillä.

Aseta hiiri pisteen päälle nähdäksesi sääaseman nimen.

Klikkaa sitten nähdäksesi säähavainnot ja -ennusteet.

Kartan vaihtaminen: klikkaa mustalla rastilla varustettuja vihreitä pisteitä, niin voit zoomata sisään; viivalla varustettua vihreää pistettä, niin voit zoomata ulos tai vihreitä nuolia, niin pääset viereisille kartoille.


METAR-TAF: